createdAt,value
2022-12-23T00:00:57.125Z,7.49
2022-12-23T00:06:01.741Z,7.48
2022-12-23T00:11:06.585Z,7.45
2022-12-23T00:16:13.540Z,7.41
2022-12-23T00:21:18.348Z,7.44
2022-12-23T00:26:24.276Z,7.43
2022-12-23T00:31:29.380Z,7.46
2022-12-23T00:36:33.054Z,7.32
2022-12-23T00:41:54.150Z,7.53
2022-12-23T00:46:59.496Z,7.42
2022-12-23T00:52:04.405Z,7.39
2022-12-23T00:57:08.135Z,7.34
2022-12-23T01:02:31.029Z,7.28
2022-12-23T01:07:34.839Z,7.23
2022-12-23T01:12:38.690Z,7.20
2022-12-23T01:17:43.749Z,7.11
2022-12-23T01:22:47.365Z,7.09
2022-12-23T01:27:51.079Z,7.13
2022-12-23T01:32:56.049Z,7.19
2022-12-23T01:37:59.887Z,7.26
2022-12-23T01:43:03.483Z,7.24
2022-12-23T01:48:11.799Z,7.29
2022-12-23T01:53:19.805Z,7.20
2022-12-23T01:58:29.254Z,7.41
2022-12-23T02:03:43.675Z,7.50
2022-12-23T02:09:04.660Z,7.61
2022-12-23T02:14:39.873Z,7.67
2022-12-23T02:20:14.025Z,7.56
2022-12-23T02:25:49.284Z,7.68
2022-12-23T02:31:02.520Z,7.55
2022-12-23T02:36:25.216Z,7.62
2022-12-23T02:41:35.591Z,7.53
2022-12-23T02:46:46.927Z,7.58
2022-12-23T02:51:55.755Z,7.72
2022-12-23T02:57:02.474Z,7.68
2022-12-23T03:02:07.616Z,7.61
2022-12-23T03:07:19.489Z,7.66
2022-12-23T03:12:34.584Z,7.74
2022-12-23T03:17:53.600Z,7.77
2022-12-23T03:23:05.128Z,7.70
2022-12-23T03:28:12.879Z,7.68
2022-12-23T03:33:23.640Z,7.84
2022-12-23T03:38:28.654Z,7.85
2022-12-23T03:43:40.519Z,7.75
2022-12-23T03:48:53.271Z,7.65
2022-12-23T03:54:02.744Z,7.79
2022-12-23T03:59:12.621Z,7.97
2022-12-23T04:04:26.207Z,8.04
2022-12-23T04:09:30.237Z,8.04
2022-12-23T04:14:37.699Z,7.98
2022-12-23T04:19:42.709Z,7.93
2022-12-23T04:24:46.305Z,7.67
2022-12-23T04:29:49.974Z,7.82
2022-12-23T04:34:54.945Z,7.79
2022-12-23T04:39:58.440Z,7.78
2022-12-23T04:45:01.945Z,7.79
2022-12-23T04:50:08.780Z,7.87
2022-12-23T04:55:12.724Z,8.02
2022-12-23T05:00:17.303Z,8.20
2022-12-23T05:05:22.265Z,8.20
2022-12-23T05:10:25.873Z,8.27
2022-12-23T05:15:29.495Z,8.18
2022-12-23T05:20:34.423Z,8.33
2022-12-23T05:25:39.606Z,8.28
2022-12-23T05:30:43.572Z,8.23
2022-12-23T05:35:48.417Z,8.27
2022-12-23T05:40:52.325Z,8.44
2022-12-23T05:45:56.251Z,8.25
2022-12-23T05:51:01.308Z,8.24
2022-12-23T05:56:06.353Z,7.93
2022-12-23T06:01:09.967Z,7.99
2022-12-23T06:06:15.386Z,8.14
2022-12-23T06:11:19.049Z,7.98
2022-12-23T06:16:22.730Z,8.03
2022-12-23T06:21:27.859Z,8.02
2022-12-23T06:26:31.499Z,8.15
2022-12-23T06:31:35.176Z,8.16
2022-12-23T06:36:40.268Z,8.27
2022-12-23T06:41:43.866Z,8.23
2022-12-23T06:46:47.501Z,8.32
2022-12-23T06:51:52.659Z,8.43
2022-12-23T06:56:56.556Z,8.37
2022-12-23T07:02:00.574Z,8.24
2022-12-23T07:07:06.775Z,8.34
2022-12-23T07:12:11.043Z,8.36
2022-12-23T07:17:14.718Z,8.14
2022-12-23T07:22:20.488Z,8.18
2022-12-23T07:27:24.448Z,8.12
2022-12-23T07:32:28.370Z,8.14
2022-12-23T07:37:33.640Z,8.22
2022-12-23T07:42:46.832Z,8.22
2022-12-23T07:47:55.514Z,7.97
2022-12-23T07:53:00.761Z,8.18
2022-12-23T07:58:04.435Z,8.10
2022-12-23T08:03:09.348Z,7.99
2022-12-23T08:08:14.566Z,8.03
2022-12-23T08:13:18.887Z,8.26
2022-12-23T08:18:23.254Z,8.20
2022-12-23T08:23:29.914Z,8.37
2022-12-23T08:28:35.124Z,8.51
2022-12-23T08:33:40.664Z,8.67
2022-12-23T08:38:46.611Z,8.77
2022-12-23T08:43:50.482Z,8.70
2022-12-23T08:48:54.371Z,8.97
2022-12-23T08:54:01.677Z,9.19
2022-12-23T08:59:05.698Z,9.08
2022-12-23T09:04:09.377Z,9.07
2022-12-23T09:09:15.858Z,9.17
2022-12-23T09:14:19.554Z,9.49
2022-12-23T09:19:23.312Z,9.38
2022-12-23T09:24:28.369Z,9.47
2022-12-23T09:29:32.042Z,9.53
2022-12-23T09:34:36.880Z,9.50
2022-12-23T09:39:42.053Z,9.45
2022-12-23T09:45:09.977Z,9.29
2022-12-23T09:50:22.596Z,9.17
2022-12-23T09:55:35.357Z,9.40
2022-12-23T10:00:44.029Z,9.52
2022-12-23T10:05:56.298Z,9.63
2022-12-23T10:11:06.654Z,9.66
2022-12-23T10:16:15.880Z,9.82
2022-12-23T10:21:27.579Z,9.81
2022-12-23T10:26:35.814Z,9.87
2022-12-23T10:31:49.935Z,9.88
2022-12-23T10:37:00.792Z,9.78
2022-12-23T10:42:16.119Z,9.97
2022-12-23T10:47:32.068Z,9.82
2022-12-23T10:52:38.662Z,9.76
2022-12-23T10:57:43.686Z,9.80
2022-12-23T11:02:59.142Z,9.98
2022-12-23T11:08:03.638Z,9.96
2022-12-23T11:13:08.573Z,9.94
2022-12-23T11:18:20.416Z,9.63
2022-12-23T11:23:26.889Z,9.80
2022-12-23T11:28:33.920Z,9.71
2022-12-23T11:33:40.284Z,9.88
2022-12-23T11:38:51.824Z,9.88
2022-12-23T11:44:01.159Z,9.84
2022-12-23T11:49:20.269Z,9.94
2022-12-23T11:54:23.961Z,9.84
2022-12-23T11:59:35.357Z,9.68
2022-12-23T12:04:39.744Z,9.78
2022-12-23T12:09:45.865Z,9.56
2022-12-23T12:14:55.071Z,9.35
2022-12-23T12:20:04.983Z,9.75
2022-12-23T12:25:18.656Z,9.74
2022-12-23T12:30:31.804Z,9.73
2022-12-23T12:35:43.069Z,9.65
2022-12-23T12:40:51.142Z,9.63
2022-12-23T12:46:07.614Z,9.79
2022-12-23T12:51:20.112Z,9.76
2022-12-23T12:56:29.266Z,9.62
2022-12-23T13:01:50.834Z,9.60
2022-12-23T13:07:02.622Z,9.55
2022-12-23T13:12:15.807Z,9.65
2022-12-23T13:17:25.975Z,9.63
2022-12-23T13:22:33.401Z,9.61
2022-12-23T13:27:45.439Z,9.57
2022-12-23T13:33:16.830Z,9.45
2022-12-23T13:38:34.226Z,9.35
2022-12-23T13:43:44.828Z,9.19
2022-12-23T13:48:55.408Z,9.20
2022-12-23T13:54:05.259Z,9.26
2022-12-23T13:59:11.616Z,9.17
2022-12-23T14:04:33.272Z,9.11
2022-12-23T14:09:41.012Z,9.08
2022-12-23T14:15:00.171Z,9.02
2022-12-23T14:20:19.135Z,8.92
2022-12-23T14:25:54.811Z,8.87
2022-12-23T14:30:59.481Z,8.54
2022-12-23T14:36:24.669Z,8.60
2022-12-23T14:41:39.019Z,8.70
2022-12-23T14:46:58.737Z,8.64
2022-12-23T14:52:39.343Z,8.40
2022-12-23T14:57:47.033Z,8.51
2022-12-23T15:02:56.654Z,8.27
2022-12-23T15:08:00.409Z,8.37
2022-12-23T15:13:06.271Z,8.61
2022-12-23T15:18:14.544Z,8.75
2022-12-23T15:23:18.680Z,8.75
2022-12-23T15:28:31.916Z,8.72
2022-12-23T15:34:03.056Z,8.75
2022-12-23T15:39:02.548Z,8.79
2022-12-23T15:44:14.808Z,8.71
2022-12-23T15:49:20.784Z,8.63
2022-12-23T15:54:28.858Z,8.51
2022-12-23T15:59:37.420Z,8.24
2022-12-23T16:04:41.130Z,8.28
2022-12-23T16:09:45.087Z,8.11
2022-12-23T16:14:55.376Z,8.17
2022-12-23T16:20:22.207Z,8.06
2022-12-23T16:25:28.098Z,8.10
2022-12-23T16:30:35.979Z,8.04
2022-12-23T16:35:41.640Z,8.04
2022-12-23T16:40:47.054Z,7.91
2022-12-23T16:45:55.479Z,7.80
2022-12-23T16:50:59.425Z,7.99
2022-12-23T16:56:03.930Z,8.09
2022-12-23T17:01:14.912Z,8.14
2022-12-23T17:06:19.510Z,8.15
2022-12-23T17:11:26.622Z,8.09
2022-12-23T17:16:31.904Z,7.96
2022-12-23T17:21:37.912Z,7.79
2022-12-23T17:26:41.618Z,7.93
2022-12-23T17:31:48.089Z,7.90
2022-12-23T17:36:52.707Z,8.23
2022-12-23T17:41:56.647Z,8.34
2022-12-23T17:47:02.236Z,8.09
2022-12-23T17:52:07.427Z,8.23
2022-12-23T17:57:18.185Z,8.24
2022-12-23T18:02:28.104Z,8.30
2022-12-23T18:07:31.922Z,8.31
2022-12-23T18:12:37.736Z,8.21
2022-12-23T18:17:42.976Z,8.19
2022-12-23T18:22:48.093Z,8.15
2022-12-23T18:27:52.501Z,8.16
2022-12-23T18:32:57.415Z,8.29
2022-12-23T18:38:01.698Z,8.74
2022-12-23T18:43:05.997Z,9.33
2022-12-23T18:48:11.861Z,9.22
2022-12-23T18:53:23.885Z,9.23
2022-12-23T18:58:28.381Z,9.19
2022-12-23T19:03:33.535Z,9.34
2022-12-23T19:08:38.123Z,9.38
2022-12-23T19:13:41.942Z,9.25
2022-12-23T19:18:48.883Z,9.10
2022-12-23T19:23:52.607Z,8.80
2022-12-23T19:28:56.229Z,8.80
2022-12-23T19:34:02.258Z,8.96
2022-12-23T19:39:06.092Z,8.91
2022-12-23T19:44:10.013Z,9.17
2022-12-23T19:49:19.962Z,9.62
2022-12-23T19:54:24.070Z,9.46
2022-12-23T19:59:27.724Z,9.40
2022-12-23T20:04:33.072Z,9.47
2022-12-23T20:09:37.262Z,9.41
2022-12-23T20:14:41.848Z,9.59
2022-12-23T20:19:47.011Z,9.82
2022-12-23T20:24:51.073Z,9.91
2022-12-23T20:29:55.019Z,10.02
2022-12-23T20:35:00.914Z,9.91
2022-12-23T20:40:05.448Z,9.92
2022-12-23T20:45:10.044Z,9.90
2022-12-23T20:50:15.546Z,9.98
2022-12-23T20:55:19.409Z,9.90
2022-12-23T21:00:23.316Z,9.98
2022-12-23T21:05:29.710Z,10.03
2022-12-23T21:10:35.781Z,9.94
2022-12-23T21:15:39.560Z,9.94
2022-12-23T21:20:44.436Z,9.81
2022-12-23T21:25:48.070Z,9.90
2022-12-23T21:30:52.496Z,9.86
2022-12-23T21:35:57.918Z,9.89
2022-12-23T21:41:03.028Z,9.67
2022-12-23T21:46:09.400Z,9.87
2022-12-23T21:51:16.177Z,9.76
2022-12-23T21:56:21.912Z,9.74
2022-12-23T22:01:26.061Z,9.56
2022-12-23T22:06:33.505Z,9.50
2022-12-23T22:11:38.610Z,9.50
2022-12-23T22:16:42.368Z,9.72
2022-12-23T22:21:48.013Z,9.61
2022-12-23T22:26:51.698Z,9.76
2022-12-23T22:31:56.840Z,9.82
2022-12-23T22:37:02.193Z,9.81
2022-12-23T22:42:06.354Z,9.89
2022-12-23T22:47:09.799Z,9.92
2022-12-23T22:52:14.956Z,9.83
2022-12-23T22:57:18.681Z,9.87
2022-12-23T23:02:22.534Z,9.80
2022-12-23T23:12:40.909Z,9.49
2022-12-23T23:17:44.457Z,9.47
2022-12-23T23:22:47.996Z,9.44
2022-12-23T23:27:53.030Z,9.49
2022-12-23T23:32:56.493Z,9.60
2022-12-23T23:37:59.996Z,9.54
2022-12-23T23:43:06.110Z,9.52
2022-12-23T23:48:11.405Z,9.54
2022-12-23T23:53:16.586Z,9.54
2022-12-23T23:58:22.371Z,9.62
